Vårt webkamera more information My webcam


webkamera på Randaberg more information webcam on Randaberg


Nedbørsradar  rain snow radar


Besøk vår andre værside:

Alternativ webside

Alternativ mobil

Regnskvett RandabergWebsite of another weatherstation



Ikke nødvendig med spesiell oppmerksomhet.    Det er ingen advarsler

Nære METAR rapporter

   
ENHD - Haugesund
oppdatert: 24-05-2019 06:50
Delvis Skyet  
Delvis Skyet  
   Vind: Øst 1.5 m/s
Vind: Øst 1.5 m/s
Temperatur: 8°C
Wind Chill: 7°C
Duggpunkt: 6°C
Fuktighet: 87%
Barometer: 1004 hPa
Skyer: Delvis Skyet
Sikt: More than 10 km
Skydetaljer: få skyer 457.2 m,
Delvis Skyet 1066.8 m
ENHD 240450Z 10003KT 9999 FEW015 SCT035 08/06 Q1004
ENZV - Randaberg
oppdatert: 24-05-2019 06:50
Nearby Showers, For det meste skyet  
Nearby Showers, For det meste skyet  
   Vind: NV 1.5 m/s
Vind: NV 1.5 m/s
Temperatur: 9°C
Wind Chill: 8°C
Duggpunkt: 9°C
Fuktighet: 100%
Barometer: 1003 hPa
Skyer: For det meste skyet
Sikt: More than 10 km
Skydetaljer: Delvis Skyet 182.9 m,
Delvis Skyet 365.8 m,
For det meste skyet 762 m
ENZV 240450Z 31003KT 9999 7000E VCSH SCT006 SCT012TCU BKN025 09/09 Q1003 TEMPO SHRA
ENBR - Bergen
oppdatert: 24-05-2019 06:50
For det meste skyet  
For det meste skyet  
   Vind: Nord 1.5 m/s
Vind: Nord 1.5 m/s
Temperatur: 8°C
Wind Chill: 7°C
Duggpunkt: 7°C
Fuktighet: 93%
Barometer: 1004 hPa
Skyer: For det meste skyet
Sikt: More than 10 km
Skydetaljer: få skyer 213.4 m,
Delvis Skyet 457.2 m,
For det meste skyet 609.6 m
ENBR 240450Z 35003KT 9999 FEW007 SCT015 BKN020 08/07 Q1004 NOSIG RMK WIND 1200FT 33016KT
ENCN - Kristiansand
oppdatert: 24-05-2019 06:50
For det meste skyet  
For det meste skyet  
   Vind: SSV 3.1 m/s
Vind: SSV 3.1 m/s
Temperatur: 9°C
Wind Chill: 7°C
Duggpunkt: 9°C
Fuktighet: 100%
Barometer: 1003 hPa
Skyer: For det meste skyet
Sikt: More than 10 km
Skydetaljer: få skyer 61 m,
For det meste skyet 182.9 m
ENCN 240450Z 21006KT 9999 FEW002 BKN006 09/09 Q1003
ENGM - Oslo
oppdatert: 24-05-2019 06:50
Lett regn, For det meste skyet  
Lett regn, For det meste skyet  
   Vind: ØSØ 2.6 m/s
Vind: ØSØ 2.6 m/s
Temperatur: 8°C
Wind Chill: 7°C
Duggpunkt: 7°C
Fuktighet: 93%
Barometer: 1004 hPa
Skyer: For det meste skyet
Sikt: 7 km
Skydetaljer: få skyer 121.9 m,
For det meste skyet 213.4 m
ENGM 240450Z 11005KT 080V140 7000 -RA FEW004 BKN007 08/07 Q1004 TEMPO 4000 SHRA BKN012 SCT020CB
ENVA - Trondheim
oppdatert: 24-05-2019 06:50
Klart  
Klart  
   Vind: Stille
Vind: Stille
Temperatur: 11°C
Duggpunkt: 6°C
Fuktighet: 72%
Barometer: 1005 hPa
Sikt: More than 10 km
Skydetaljer: Klart
ENVA 240450Z 00000KT CAVOK 11/06 Q1005 NOSIG RMK WIND 670FT 06006KT

Script utviklet av  Saratoga-weather.org Tilrettelagt for malen av  Weerstation Leuven

Du finner vår vær info også på:

European Weather Network

WeatherCloud

Weather Underground

Citizen Weather Observer Program (CWOP)

Utstyr vi bruker:

Værstsjon
Oregon scientific WMR 300

Værprogram
Meteobridge

Oregon scientific WMR 300

Meteobridge